LIBN/LCC METAR and TAF weather

Enter ICAO airport designator
Station Type Date Time Source
LIBN METAR 2020/04/03 22:55 UTC NOAA

LIBN 032255Z 36005KT 8000 BKN025 09/08 Q1012 RMK OVC BKN060 VIS MIN 8000 WIND THR14 36005KT WIND THR32 36006KT BLU


Station Type Date Time Source
LIBN Decoded METAR 2020/04/03 22:55 UTC NOAA

Lecce, Italy (LIBN) 40-14N 018-09E 61M
Apr 03, 2020 - 06:55 PM EDT / 2020.04.03 2255 UTC
Wind: from the N (360 degrees) at 6 MPH (5 KT):0
Visibility: 4 mile(s):0
Sky conditions: mostly cloudy
Temperature: 48 F (9 C)
Dew Point: 46 F (8 C)
Relative Humidity: 93%
Pressure (altimeter): 29.88 in. Hg (1012 hPa)
ob: LIBN 032255Z 36005KT 8000 BKN025 09/08 Q1012 RMK OVC BKN060 VIS MIN 8000 WIND THR14 36005KT WIND THR32 36006KT BLU
cycle: 23

Station Type Date Time Source
LIBN TAF 2019/10/29 12:24 UTC NOAA

TAF TAF LIBN 291100Z 2912/2924 20005KT 9999 FEW025
BECMG 2917/2918 3000 BR

Example: see airport list